Whiting, VT (05778)

10:59 AM EST on February 06, 2016 (GMT -0500)
Sawyer Needham Road | | Change Station
CLOSE
Current Station
Personal Weather Station
Location: Whiting, VT
Elevation: 410 ft
Nearby Weather Stations

Elev 410 ft 43.86 °N, 73.20 °W | Updated 11 minutes ago

Overcast
Overcast
33.0 °F
Feels Like 24 °F
N
13.0
Wind Variable Wind from SW
Gusts 19.0 mph

Today
High -- | Low -- °F
--% Chance of Precip.
Yesterday
High -- | Low -- °F
Precip. -- in
Pressure 30.25 in
Visibility 10.0 miles
Clouds Overcast 9000 ft
Windchill 24 °F
Dew Point 25 °F
Humidity 71%
Rainfall 0.00 in
Snow Depth Not available.
7:04 AM 5:09 PM
Waning Crescent, 5% visible
METAR K6B0 061535Z AUTO 16013G19KT 130V190 10SM OVC090 00/M07 A3025 RMK AO2 T10041068
Pressure 30.25 in
Visibility 10.0 miles
Clouds Overcast 9000 ft
Windchill 24 °F
Dew Point 25 °F
Humidity 71%
Rainfall 0.00 in
Snow Depth Not available.
7:04 AM 5:09 PM
Waning Crescent, 5% visible
METAR K6B0 061535Z AUTO 16013G19KT 130V190 10SM OVC090 00/M07 A3025 RMK AO2 T10041068

10-Day Weather Forecast

Almanac

Astronomy

Feb. 06, 2016 Rise Set
Actual Time
Civil Twilight
Nautical Twilight
Astronomical Twilight
Moon
Length of Visible Light
Length of Day
Tomorrow will be .
, % of the Moon is Illuminated

Today's Extremes

State Highs State Lows

Community

WunderPhotos

Upload Photos

1,890,987 photos uploaded!

WunderBlog® & News

Nearby

Air Quality

  Air Quality AQ Index Pollutant
Not available.

Snow Depth

Station Depth Elevation

Earthquake Activity

City Distance Mag. Time & Date
Minimum magnitude displayed is 2.5.

Coastal Water Temperatures

Place Temperature

Stations

Nearby Weather Stations

Station Location Temp. Windchill Dew Point Humidity Wind Precip. Elev Updated Type
                   

Watches & Warnings

There are currently no watches in effect.